sensor_id;sensor_type;location;lat;lon;timestamp;P1;durP1;ratioP1;P2;durP2;ratioP2
1128;SDS011;553;51.038;7.216;2024-02-04T00:01:42;31.90;;;20.03;;
1128;SDS011;553;51.038;7.216;2024-02-04T00:04:09;30.23;;;18.90;;
1128;SDS011;553;51.038;7.216;2024-02-04T00:06:36;30.73;;;18.10;;
1128;SDS011;553;51.038;7.216;2024-02-04T00:09:03;27.93;;;16.07;;
1128;SDS011;553;51.038;7.216;2024-02-04T00:11:30;32.47;;;17.40;;
1128;SDS011;553;51.038;7.216;2024-02-04T00:13:57;27.90;;;17.20;;
1128;SDS011;553;51.038;7.216;2024-02-04T00:16:24;27.03;;;16.43;;
1128;SDS011;553;51.038;7.216;2024-02-04T00:18:51;28.23;;;16.20;;
1128;SDS011;553;51.038;7.216;2024-02-04T00:21:18;23.13;;;14.23;;
1128;SDS011;553;51.038;7.216;2024-02-04T00:23:45;23.60;;;14.43;;
1128;SDS011;553;51.038;7.216;2024-02-04T00:26:12;21.50;;;13.47;;
1128;SDS011;553;51.038;7.216;2024-02-04T00:28:39;20.43;;;11.83;;
1128;SDS011;553;51.038;7.216;2024-02-04T00:31:10;20.17;;;12.80;;
1128;SDS011;553;51.038;7.216;2024-02-04T00:33:37;17.83;;;11.87;;
1128;SDS011;553;51.038;7.216;2024-02-04T00:36:04;16.03;;;11.80;;
1128;SDS011;553;51.038;7.216;2024-02-04T00:38:31;15.30;;;9.73;;
1128;SDS011;553;51.038;7.216;2024-02-04T00:40:58;12.87;;;8.20;;
1128;SDS011;553;51.038;7.216;2024-02-04T00:43:24;12.53;;;8.73;;
1128;SDS011;553;51.038;7.216;2024-02-04T00:45:51;12.10;;;7.53;;
1128;SDS011;553;51.038;7.216;2024-02-04T00:48:18;11.87;;;6.87;;
1128;SDS011;553;51.038;7.216;2024-02-04T00:50:45;10.50;;;6.70;;
1128;SDS011;553;51.038;7.216;2024-02-04T00:53:13;7.93;;;6.00;;
1128;SDS011;553;51.038;7.216;2024-02-04T00:55:41;7.30;;;5.10;;
1128;SDS011;553;51.038;7.216;2024-02-04T00:58:07;7.63;;;5.43;;
1128;SDS011;553;51.038;7.216;2024-02-04T01:00:34;8.50;;;6.17;;
1128;SDS011;553;51.038;7.216;2024-02-04T01:03:01;8.73;;;5.93;;
1128;SDS011;553;51.038;7.216;2024-02-04T01:05:27;8.63;;;6.40;;
1128;SDS011;553;51.038;7.216;2024-02-04T01:07:54;10.23;;;7.13;;
1128;SDS011;553;51.038;7.216;2024-02-04T01:10:21;12.27;;;7.73;;
1128;SDS011;553;51.038;7.216;2024-02-04T01:12:48;11.13;;;8.20;;
1128;SDS011;553;51.038;7.216;2024-02-04T01:15:14;12.87;;;7.40;;
1128;SDS011;553;51.038;7.216;2024-02-04T01:17:41;10.47;;;6.57;;
1128;SDS011;553;51.038;7.216;2024-02-04T01:20:08;12.50;;;7.30;;
1128;SDS011;553;51.038;7.216;2024-02-04T01:22:36;10.27;;;6.40;;
1128;SDS011;553;51.038;7.216;2024-02-04T01:25:03;11.30;;;6.93;;
1128;SDS011;553;51.038;7.216;2024-02-04T01:27:31;10.47;;;7.47;;
1128;SDS011;553;51.038;7.216;2024-02-04T01:29:57;13.03;;;8.83;;
1128;SDS011;553;51.038;7.216;2024-02-04T01:32:24;11.20;;;7.10;;
1128;SDS011;553;51.038;7.216;2024-02-04T01:34:51;10.37;;;7.00;;
1128;SDS011;553;51.038;7.216;2024-02-04T01:37:18;14.37;;;9.17;;
1128;SDS011;553;51.038;7.216;2024-02-04T01:39:45;11.93;;;7.90;;
1128;SDS011;553;51.038;7.216;2024-02-04T01:42:12;13.47;;;9.40;;
1128;SDS011;553;51.038;7.216;2024-02-04T01:44:38;12.20;;;7.80;;
1128;SDS011;553;51.038;7.216;2024-02-04T01:47:05;13.90;;;8.13;;
1128;SDS011;553;51.038;7.216;2024-02-04T01:49:32;12.33;;;8.53;;
1128;SDS011;553;51.038;7.216;2024-02-04T01:51:59;11.67;;;8.10;;
1128;SDS011;553;51.038;7.216;2024-02-04T01:54:27;12.50;;;8.90;;
1128;SDS011;553;51.038;7.216;2024-02-04T01:56:58;11.20;;;7.90;;
1128;SDS011;553;51.038;7.216;2024-02-04T01:59:28;11.80;;;8.50;;
1128;SDS011;553;51.038;7.216;2024-02-04T02:01:58;13.23;;;9.43;;
1128;SDS011;553;51.038;7.216;2024-02-04T02:04:26;13.10;;;9.17;;
1128;SDS011;553;51.038;7.216;2024-02-04T02:06:53;14.93;;;9.43;;
1128;SDS011;553;51.038;7.216;2024-02-04T02:09:21;13.50;;;8.97;;
1128;SDS011;553;51.038;7.216;2024-02-04T02:12:03;11.60;;;8.10;;
1128;SDS011;553;51.038;7.216;2024-02-04T02:14:35;14.47;;;9.60;;
1128;SDS011;553;51.038;7.216;2024-02-04T02:17:11;14.60;;;10.20;;
1128;SDS011;553;51.038;7.216;2024-02-04T02:19:51;16.30;;;10.37;;
1128;SDS011;553;51.038;7.216;2024-02-04T02:22:28;15.03;;;10.70;;
1128;SDS011;553;51.038;7.216;2024-02-04T02:25:00;15.57;;;9.57;;
1128;SDS011;553;51.038;7.216;2024-02-04T02:27:31;16.90;;;10.07;;
1128;SDS011;553;51.038;7.216;2024-02-04T02:29:58;16.17;;;10.80;;
1128;SDS011;553;51.038;7.216;2024-02-04T02:32:24;14.17;;;9.03;;
1128;SDS011;553;51.038;7.216;2024-02-04T02:34:52;15.67;;;10.00;;
1128;SDS011;553;51.038;7.216;2024-02-04T02:42:25;19.03;;;11.03;;
1128;SDS011;553;51.038;7.216;2024-02-04T02:44:53;22.00;;;12.33;;
1128;SDS011;553;51.038;7.216;2024-02-04T02:47:22;21.67;;;12.77;;
1128;SDS011;553;51.038;7.216;2024-02-04T02:49:53;27.50;;;17.50;;
1128;SDS011;553;51.038;7.216;2024-02-04T02:52:22;24.60;;;15.70;;
1128;SDS011;553;51.038;7.216;2024-02-04T02:54:49;26.03;;;16.17;;
1128;SDS011;553;51.038;7.216;2024-02-04T02:57:15;28.67;;;17.70;;
1128;SDS011;553;51.038;7.216;2024-02-04T02:59:42;28.60;;;17.90;;
1128;SDS011;553;51.038;7.216;2024-02-04T03:02:09;30.07;;;18.57;;
1128;SDS011;553;51.038;7.216;2024-02-04T03:04:37;35.50;;;22.17;;
1128;SDS011;553;51.038;7.216;2024-02-04T03:07:04;33.30;;;19.97;;
1128;SDS011;553;51.038;7.216;2024-02-04T03:09:32;30.67;;;19.00;;
1128;SDS011;553;51.038;7.216;2024-02-04T03:12:00;34.27;;;20.33;;
1128;SDS011;553;51.038;7.216;2024-02-04T03:14:26;29.70;;;19.47;;
1128;SDS011;553;51.038;7.216;2024-02-04T03:16:53;31.13;;;20.80;;
1128;SDS011;553;51.038;7.216;2024-02-04T03:19:20;31.47;;;19.30;;
1128;SDS011;553;51.038;7.216;2024-02-04T03:21:47;27.90;;;18.43;;
1128;SDS011;553;51.038;7.216;2024-02-04T03:24:15;28.23;;;18.50;;
1128;SDS011;553;51.038;7.216;2024-02-04T03:26:42;28.47;;;17.30;;
1128;SDS011;553;51.038;7.216;2024-02-04T03:29:08;27.90;;;16.97;;
1128;SDS011;553;51.038;7.216;2024-02-04T03:31:35;31.93;;;18.97;;
1128;SDS011;553;51.038;7.216;2024-02-04T03:34:02;31.70;;;18.00;;
1128;SDS011;553;51.038;7.216;2024-02-04T03:36:30;33.00;;;17.27;;
1128;SDS011;553;51.038;7.216;2024-02-04T03:38:57;27.83;;;16.50;;
1128;SDS011;553;51.038;7.216;2024-02-04T03:41:24;30.20;;;18.33;;
1128;SDS011;553;51.038;7.216;2024-02-04T03:43:51;32.50;;;20.20;;
1128;SDS011;553;51.038;7.216;2024-02-04T03:46:18;30.97;;;20.27;;
1128;SDS011;553;51.038;7.216;2024-02-04T03:48:45;35.93;;;22.20;;
1128;SDS011;553;51.038;7.216;2024-02-04T03:51:16;35.97;;;21.37;;
1128;SDS011;553;51.038;7.216;2024-02-04T03:53:44;38.23;;;23.30;;
1128;SDS011;553;51.038;7.216;2024-02-04T03:56:11;35.27;;;19.40;;
1128;SDS011;553;51.038;7.216;2024-02-04T03:58:37;33.50;;;21.70;;
1128;SDS011;553;51.038;7.216;2024-02-04T04:01:04;39.13;;;22.33;;
1128;SDS011;553;51.038;7.216;2024-02-04T04:03:31;45.00;;;25.60;;
1128;SDS011;553;51.038;7.216;2024-02-04T04:05:58;44.03;;;25.57;;
1128;SDS011;553;51.038;7.216;2024-02-04T04:08:25;45.37;;;25.03;;
1128;SDS011;553;51.038;7.216;2024-02-04T04:10:52;45.50;;;26.03;;
1128;SDS011;553;51.038;7.216;2024-02-04T04:13:19;43.00;;;27.17;;
1128;SDS011;553;51.038;7.216;2024-02-04T04:15:46;47.07;;;27.77;;
1128;SDS011;553;51.038;7.216;2024-02-04T04:18:12;46.00;;;27.13;;
1128;SDS011;553;51.038;7.216;2024-02-04T04:20:40;40.50;;;22.47;;
1128;SDS011;553;51.038;7.216;2024-02-04T04:23:07;39.47;;;22.57;;
1128;SDS011;553;51.038;7.216;2024-02-04T04:25:34;37.00;;;23.30;;
1128;SDS011;553;51.038;7.216;2024-02-04T04:28:01;35.70;;;21.80;;
1128;SDS011;553;51.038;7.216;2024-02-04T04:30:28;37.43;;;20.80;;
1128;SDS011;553;51.038;7.216;2024-02-04T04:32:55;36.37;;;21.03;;
1128;SDS011;553;51.038;7.216;2024-02-04T04:35:24;37.70;;;21.83;;
1128;SDS011;553;51.038;7.216;2024-02-04T04:37:51;35.53;;;20.13;;
1128;SDS011;553;51.038;7.216;2024-02-04T04:40:19;37.27;;;19.10;;
1128;SDS011;553;51.038;7.216;2024-02-04T04:42:46;38.50;;;21.67;;
1128;SDS011;553;51.038;7.216;2024-02-04T04:45:12;36.27;;;18.60;;
1128;SDS011;553;51.038;7.216;2024-02-04T04:47:41;33.53;;;18.20;;
1128;SDS011;553;51.038;7.216;2024-02-04T04:50:08;37.27;;;19.10;;
1128;SDS011;553;51.038;7.216;2024-02-04T04:52:35;36.77;;;19.93;;
1128;SDS011;553;51.038;7.216;2024-02-04T04:55:02;34.03;;;18.37;;
1128;SDS011;553;51.038;7.216;2024-02-04T04:57:29;28.77;;;17.63;;
1128;SDS011;553;51.038;7.216;2024-02-04T04:59:56;30.73;;;15.90;;
1128;SDS011;553;51.038;7.216;2024-02-04T05:02:26;25.47;;;15.33;;
1128;SDS011;553;51.038;7.216;2024-02-04T05:04:53;26.37;;;14.07;;
1128;SDS011;553;51.038;7.216;2024-02-04T05:07:20;23.97;;;13.60;;
1128;SDS011;553;51.038;7.216;2024-02-04T05:09:48;25.73;;;14.00;;
1128;SDS011;553;51.038;7.216;2024-02-04T05:12:14;28.57;;;13.73;;
1128;SDS011;553;51.038;7.216;2024-02-04T05:14:41;25.03;;;13.80;;
1128;SDS011;553;51.038;7.216;2024-02-04T05:17:08;27.70;;;14.20;;
1128;SDS011;553;51.038;7.216;2024-02-04T05:19:35;29.80;;;14.50;;
1128;SDS011;553;51.038;7.216;2024-02-04T05:22:02;27.70;;;14.60;;
1128;SDS011;553;51.038;7.216;2024-02-04T05:24:29;28.10;;;14.83;;
1128;SDS011;553;51.038;7.216;2024-02-04T05:26:56;30.30;;;16.43;;
1128;SDS011;553;51.038;7.216;2024-02-04T05:29:23;30.27;;;17.17;;
1128;SDS011;553;51.038;7.216;2024-02-04T05:31:50;37.77;;;19.43;;
1128;SDS011;553;51.038;7.216;2024-02-04T05:34:16;39.33;;;21.60;;
1128;SDS011;553;51.038;7.216;2024-02-04T05:36:44;39.30;;;22.70;;
1128;SDS011;553;51.038;7.216;2024-02-04T05:39:11;42.70;;;22.33;;
1128;SDS011;553;51.038;7.216;2024-02-04T05:41:43;34.43;;;20.43;;
1128;SDS011;553;51.038;7.216;2024-02-04T05:44:10;34.27;;;19.80;;
1128;SDS011;553;51.038;7.216;2024-02-04T05:46:37;38.20;;;19.60;;
1128;SDS011;553;51.038;7.216;2024-02-04T05:49:05;41.93;;;20.27;;
1128;SDS011;553;51.038;7.216;2024-02-04T05:51:32;32.13;;;18.30;;
1128;SDS011;553;51.038;7.216;2024-02-04T05:54:03;36.20;;;18.77;;
1128;SDS011;553;51.038;7.216;2024-02-04T05:56:30;36.80;;;20.00;;
1128;SDS011;553;51.038;7.216;2024-02-04T05:58:57;41.47;;;23.43;;
1128;SDS011;553;51.038;7.216;2024-02-04T06:01:24;44.07;;;23.60;;
1128;SDS011;553;51.038;7.216;2024-02-04T06:03:51;39.93;;;22.83;;
1128;SDS011;553;51.038;7.216;2024-02-04T06:06:18;44.67;;;23.10;;
1128;SDS011;553;51.038;7.216;2024-02-04T06:08:47;42.50;;;22.20;;
1128;SDS011;553;51.038;7.216;2024-02-04T06:11:14;41.60;;;23.20;;
1128;SDS011;553;51.038;7.216;2024-02-04T06:13:41;46.07;;;22.43;;
1128;SDS011;553;51.038;7.216;2024-02-04T06:16:09;46.80;;;24.20;;
1128;SDS011;553;51.038;7.216;2024-02-04T06:18:38;36.83;;;20.40;;
1128;SDS011;553;51.038;7.216;2024-02-04T06:21:06;35.70;;;20.20;;
1128;SDS011;553;51.038;7.216;2024-02-04T06:23:33;41.37;;;21.57;;
1128;SDS011;553;51.038;7.216;2024-02-04T06:26:00;38.47;;;20.03;;
1128;SDS011;553;51.038;7.216;2024-02-04T06:28:27;37.53;;;20.17;;
1128;SDS011;553;51.038;7.216;2024-02-04T06:30:54;41.83;;;20.50;;
1128;SDS011;553;51.038;7.216;2024-02-04T06:33:22;33.43;;;18.70;;
1128;SDS011;553;51.038;7.216;2024-02-04T06:35:51;33.77;;;18.03;;
1128;SDS011;553;51.038;7.216;2024-02-04T06:38:18;32.40;;;17.30;;
1128;SDS011;553;51.038;7.216;2024-02-04T06:40:44;33.00;;;17.57;;
1128;SDS011;553;51.038;7.216;2024-02-04T06:43:11;28.37;;;16.57;;
1128;SDS011;553;51.038;7.216;2024-02-04T06:45:38;26.33;;;15.00;;
1128;SDS011;553;51.038;7.216;2024-02-04T06:48:05;28.00;;;14.63;;
1128;SDS011;553;51.038;7.216;2024-02-04T06:50:32;27.77;;;15.30;;
1128;SDS011;553;51.038;7.216;2024-02-04T06:52:59;31.70;;;16.53;;
1128;SDS011;553;51.038;7.216;2024-02-04T06:55:26;28.57;;;15.37;;
1128;SDS011;553;51.038;7.216;2024-02-04T06:57:52;24.63;;;14.70;;
1128;SDS011;553;51.038;7.216;2024-02-04T07:00:19;24.73;;;14.90;;
1128;SDS011;553;51.038;7.216;2024-02-04T07:02:47;24.63;;;15.20;;
1128;SDS011;553;51.038;7.216;2024-02-04T07:05:15;30.87;;;15.37;;
1128;SDS011;553;51.038;7.216;2024-02-04T07:07:42;23.97;;;14.50;;
1128;SDS011;553;51.038;7.216;2024-02-04T07:10:09;24.73;;;13.10;;
1128;SDS011;553;51.038;7.216;2024-02-04T07:12:36;24.27;;;14.17;;
1128;SDS011;553;51.038;7.216;2024-02-04T07:15:03;22.33;;;12.50;;
1128;SDS011;553;51.038;7.216;2024-02-04T07:17:30;22.73;;;12.17;;
1128;SDS011;553;51.038;7.216;2024-02-04T07:19:57;22.60;;;12.60;;
1128;SDS011;553;51.038;7.216;2024-02-04T07:22:23;22.20;;;11.30;;
1128;SDS011;553;51.038;7.216;2024-02-04T07:24:50;18.83;;;9.30;;
1128;SDS011;553;51.038;7.216;2024-02-04T07:27:17;19.23;;;9.87;;
1128;SDS011;553;51.038;7.216;2024-02-04T07:29:44;17.40;;;11.10;;
1128;SDS011;553;51.038;7.216;2024-02-04T07:32:10;12.40;;;8.53;;
1128;SDS011;553;51.038;7.216;2024-02-04T07:34:37;13.10;;;7.77;;
1128;SDS011;553;51.038;7.216;2024-02-04T07:37:04;14.90;;;8.07;;
1128;SDS011;553;51.038;7.216;2024-02-04T07:39:31;13.10;;;8.27;;
1128;SDS011;553;51.038;7.216;2024-02-04T07:41:58;9.60;;;6.80;;
1128;SDS011;553;51.038;7.216;2024-02-04T07:44:28;10.80;;;6.17;;
1128;SDS011;553;51.038;7.216;2024-02-04T07:46:55;9.87;;;7.63;;
1128;SDS011;553;51.038;7.216;2024-02-04T07:49:22;9.00;;;5.30;;
1128;SDS011;553;51.038;7.216;2024-02-04T07:51:49;7.67;;;5.30;;
1128;SDS011;553;51.038;7.216;2024-02-04T07:54:15;8.50;;;6.33;;
1128;SDS011;553;51.038;7.216;2024-02-04T07:56:42;8.47;;;5.60;;
1128;SDS011;553;51.038;7.216;2024-02-04T07:59:09;9.20;;;5.13;;
1128;SDS011;553;51.038;7.216;2024-02-04T08:01:36;7.63;;;4.70;;
1128;SDS011;553;51.038;7.216;2024-02-04T08:04:03;8.20;;;4.70;;
1128;SDS011;553;51.038;7.216;2024-02-04T08:06:31;6.33;;;4.23;;
1128;SDS011;553;51.038;7.216;2024-02-04T08:09:01;8.27;;;5.80;;
1128;SDS011;553;51.038;7.216;2024-02-04T08:11:27;8.30;;;4.90;;
1128;SDS011;553;51.038;7.216;2024-02-04T08:13:54;6.03;;;4.37;;
1128;SDS011;553;51.038;7.216;2024-02-04T08:16:21;8.80;;;6.73;;
1128;SDS011;553;51.038;7.216;2024-02-04T08:18:48;8.57;;;6.70;;
1128;SDS011;553;51.038;7.216;2024-02-04T08:21:14;5.27;;;4.60;;
1128;SDS011;553;51.038;7.216;2024-02-04T08:23:41;5.43;;;4.10;;
1128;SDS011;553;51.038;7.216;2024-02-04T08:26:08;11.17;;;5.77;;
1128;SDS011;553;51.038;7.216;2024-02-04T08:28:35;5.63;;;4.67;;
1128;SDS011;553;51.038;7.216;2024-02-04T08:31:02;8.90;;;6.80;;
1128;SDS011;553;51.038;7.216;2024-02-04T08:33:29;11.90;;;9.33;;
1128;SDS011;553;51.038;7.216;2024-02-04T08:35:56;11.10;;;8.47;;
1128;SDS011;553;51.038;7.216;2024-02-04T08:38:23;9.00;;;6.80;;
1128;SDS011;553;51.038;7.216;2024-02-04T08:40:49;9.73;;;6.80;;
1128;SDS011;553;51.038;7.216;2024-02-04T08:43:16;9.87;;;8.03;;
1128;SDS011;553;51.038;7.216;2024-02-04T08:45:43;10.00;;;7.47;;
1128;SDS011;553;51.038;7.216;2024-02-04T08:48:10;10.43;;;8.17;;
1128;SDS011;553;51.038;7.216;2024-02-04T08:50:36;11.30;;;7.77;;
1128;SDS011;553;51.038;7.216;2024-02-04T08:53:03;12.77;;;10.27;;
1128;SDS011;553;51.038;7.216;2024-02-04T08:55:30;13.27;;;9.07;;
1128;SDS011;553;51.038;7.216;2024-02-04T08:57:57;10.43;;;8.37;;
1128;SDS011;553;51.038;7.216;2024-02-04T09:00:24;11.87;;;9.50;;
1128;SDS011;553;51.038;7.216;2024-02-04T09:02:51;14.07;;;11.90;;
1128;SDS011;553;51.038;7.216;2024-02-04T09:05:17;15.10;;;11.13;;
1128;SDS011;553;51.038;7.216;2024-02-04T09:07:45;16.50;;;11.33;;
1128;SDS011;553;51.038;7.216;2024-02-04T09:10:11;24.23;;;17.13;;
1128;SDS011;553;51.038;7.216;2024-02-04T09:12:39;22.20;;;15.93;;
1128;SDS011;553;51.038;7.216;2024-02-04T09:15:06;21.17;;;14.23;;
1128;SDS011;553;51.038;7.216;2024-02-04T09:17:33;15.57;;;11.77;;
1128;SDS011;553;51.038;7.216;2024-02-04T09:20:00;15.47;;;11.50;;
1128;SDS011;553;51.038;7.216;2024-02-04T09:22:27;15.47;;;10.80;;
1128;SDS011;553;51.038;7.216;2024-02-04T09:24:54;12.73;;;9.57;;
1128;SDS011;553;51.038;7.216;2024-02-04T09:27:22;16.80;;;9.20;;
1128;SDS011;553;51.038;7.216;2024-02-04T09:29:48;15.40;;;10.03;;
1128;SDS011;553;51.038;7.216;2024-02-04T09:32:15;13.80;;;9.07;;
1128;SDS011;553;51.038;7.216;2024-02-04T09:34:44;11.20;;;8.37;;
1128;SDS011;553;51.038;7.216;2024-02-04T09:37:12;9.90;;;7.93;;
1128;SDS011;553;51.038;7.216;2024-02-04T09:39:39;12.17;;;9.10;;
1128;SDS011;553;51.038;7.216;2024-02-04T09:42:06;11.00;;;9.17;;
1128;SDS011;553;51.038;7.216;2024-02-04T09:44:33;11.00;;;8.20;;
1128;SDS011;553;51.038;7.216;2024-02-04T09:47:02;8.90;;;7.37;;
1128;SDS011;553;51.038;7.216;2024-02-04T09:49:29;9.37;;;8.07;;
1128;SDS011;553;51.038;7.216;2024-02-04T09:51:59;8.30;;;6.67;;
1128;SDS011;553;51.038;7.216;2024-02-04T09:54:27;9.07;;;7.93;;
1128;SDS011;553;51.038;7.216;2024-02-04T09:56:56;15.07;;;11.53;;
1128;SDS011;553;51.038;7.216;2024-02-04T09:59:24;10.10;;;7.93;;
1128;SDS011;553;51.038;7.216;2024-02-04T10:01:51;11.50;;;8.50;;
1128;SDS011;553;51.038;7.216;2024-02-04T10:04:19;9.30;;;7.90;;
1128;SDS011;553;51.038;7.216;2024-02-04T10:06:46;10.50;;;8.60;;
1128;SDS011;553;51.038;7.216;2024-02-04T10:09:14;8.70;;;6.87;;
1128;SDS011;553;51.038;7.216;2024-02-04T10:11:41;9.67;;;7.20;;
1128;SDS011;553;51.038;7.216;2024-02-04T10:14:07;8.87;;;7.27;;
1128;SDS011;553;51.038;7.216;2024-02-04T10:16:35;11.30;;;7.30;;
1128;SDS011;553;51.038;7.216;2024-02-04T10:19:02;10.13;;;7.73;;
1128;SDS011;553;51.038;7.216;2024-02-04T10:21:30;11.97;;;8.23;;
1128;SDS011;553;51.038;7.216;2024-02-04T10:23:57;10.33;;;8.30;;
1128;SDS011;553;51.038;7.216;2024-02-04T10:26:28;9.67;;;7.50;;
1128;SDS011;553;51.038;7.216;2024-02-04T10:29:00;13.10;;;8.77;;
1128;SDS011;553;51.038;7.216;2024-02-04T10:31:27;12.73;;;8.87;;
1128;SDS011;553;51.038;7.216;2024-02-04T10:33:54;15.07;;;9.23;;
1128;SDS011;553;51.038;7.216;2024-02-04T10:36:22;10.77;;;7.87;;
1128;SDS011;553;51.038;7.216;2024-02-04T10:38:49;11.20;;;7.37;;
1128;SDS011;553;51.038;7.216;2024-02-04T10:41:17;11.97;;;6.93;;
1128;SDS011;553;51.038;7.216;2024-02-04T10:43:44;10.53;;;7.90;;
1128;SDS011;553;51.038;7.216;2024-02-04T10:46:18;9.40;;;6.97;;
1128;SDS011;553;51.038;7.216;2024-02-04T10:48:51;9.07;;;6.20;;
1128;SDS011;553;51.038;7.216;2024-02-04T10:51:24;9.10;;;6.70;;
1128;SDS011;553;51.038;7.216;2024-02-04T10:53:53;9.60;;;7.33;;
1128;SDS011;553;51.038;7.216;2024-02-04T10:56:25;10.90;;;8.27;;
1128;SDS011;553;51.038;7.216;2024-02-04T10:58:57;12.90;;;8.17;;
1128;SDS011;553;51.038;7.216;2024-02-04T11:01:26;13.40;;;7.07;;
1128;SDS011;553;51.038;7.216;2024-02-04T11:03:54;8.90;;;6.30;;
1128;SDS011;553;51.038;7.216;2024-02-04T11:06:23;8.73;;;6.20;;
1128;SDS011;553;51.038;7.216;2024-02-04T11:08:50;11.03;;;7.40;;
1128;SDS011;553;51.038;7.216;2024-02-04T11:11:22;11.43;;;7.77;;
1128;SDS011;553;51.038;7.216;2024-02-04T11:13:50;9.87;;;6.90;;
1128;SDS011;553;51.038;7.216;2024-02-04T11:16:34;11.87;;;6.30;;
1128;SDS011;553;51.038;7.216;2024-02-04T11:27:58;8.57;;;6.50;;
1128;SDS011;553;51.038;7.216;2024-02-04T11:30:26;9.37;;;7.07;;
1128;SDS011;553;51.038;7.216;2024-02-04T11:32:53;8.43;;;6.03;;
1128;SDS011;553;51.038;7.216;2024-02-04T11:35:21;8.40;;;6.33;;
1128;SDS011;553;51.038;7.216;2024-02-04T11:37:49;8.70;;;6.20;;
1128;SDS011;553;51.038;7.216;2024-02-04T11:40:17;7.60;;;6.07;;
1128;SDS011;553;51.038;7.216;2024-02-04T11:42:45;7.83;;;5.60;;
1128;SDS011;553;51.038;7.216;2024-02-04T11:45:12;8.30;;;6.43;;
1128;SDS011;553;51.038;7.216;2024-02-04T11:47:40;6.60;;;5.90;;
1128;SDS011;553;51.038;7.216;2024-02-04T11:50:08;9.20;;;6.10;;
1128;SDS011;553;51.038;7.216;2024-02-04T11:52:38;8.43;;;6.47;;
1128;SDS011;553;51.038;7.216;2024-02-04T11:55:06;6.87;;;5.57;;
1128;SDS011;553;51.038;7.216;2024-02-04T11:57:40;7.20;;;6.23;;
1128;SDS011;553;51.038;7.216;2024-02-04T12:00:07;13.83;;;6.97;;
1128;SDS011;553;51.038;7.216;2024-02-04T12:02:37;8.53;;;6.47;;
1128;SDS011;553;51.038;7.216;2024-02-04T12:05:04;6.30;;;5.10;;
1128;SDS011;553;51.038;7.216;2024-02-04T12:07:31;7.00;;;5.73;;
1128;SDS011;553;51.038;7.216;2024-02-04T12:09:59;8.03;;;6.20;;
1128;SDS011;553;51.038;7.216;2024-02-04T12:12:26;9.37;;;6.90;;
1128;SDS011;553;51.038;7.216;2024-02-04T12:14:53;11.13;;;7.33;;
1128;SDS011;553;51.038;7.216;2024-02-04T12:17:21;9.20;;;6.97;;
1128;SDS011;553;51.038;7.216;2024-02-04T12:19:47;9.10;;;7.13;;
1128;SDS011;553;51.038;7.216;2024-02-04T12:22:16;7.10;;;6.40;;
1128;SDS011;553;51.038;7.216;2024-02-04T12:24:43;7.33;;;5.93;;
1128;SDS011;553;51.038;7.216;2024-02-04T12:27:11;13.33;;;6.33;;
1128;SDS011;553;51.038;7.216;2024-02-04T12:29:38;7.57;;;6.07;;
1128;SDS011;553;51.038;7.216;2024-02-04T12:32:05;9.17;;;5.63;;
1128;SDS011;553;51.038;7.216;2024-02-04T12:34:33;8.00;;;6.90;;
1128;SDS011;553;51.038;7.216;2024-02-04T12:37:00;7.33;;;6.00;;
1128;SDS011;553;51.038;7.216;2024-02-04T12:39:28;7.70;;;5.63;;
1128;SDS011;553;51.038;7.216;2024-02-04T12:41:55;7.20;;;5.63;;
1128;SDS011;553;51.038;7.216;2024-02-04T12:44:22;11.17;;;6.03;;
1128;SDS011;553;51.038;7.216;2024-02-04T12:46:52;11.13;;;6.37;;
1128;SDS011;553;51.038;7.216;2024-02-04T12:49:20;7.47;;;6.67;;
1128;SDS011;553;51.038;7.216;2024-02-04T12:51:51;11.90;;;6.63;;
1128;SDS011;553;51.038;7.216;2024-02-04T12:54:22;7.50;;;6.03;;
1128;SDS011;553;51.038;7.216;2024-02-04T12:56:49;8.07;;;5.90;;
1128;SDS011;553;51.038;7.216;2024-02-04T12:59:24;7.53;;;6.10;;
1128;SDS011;553;51.038;7.216;2024-02-04T13:01:53;9.07;;;6.77;;
1128;SDS011;553;51.038;7.216;2024-02-04T13:04:21;9.00;;;6.20;;
1128;SDS011;553;51.038;7.216;2024-02-04T13:06:48;6.77;;;6.07;;
1128;SDS011;553;51.038;7.216;2024-02-04T13:09:15;6.17;;;5.40;;
1128;SDS011;553;51.038;7.216;2024-02-04T13:11:42;6.07;;;5.57;;
1128;SDS011;553;51.038;7.216;2024-02-04T13:14:09;7.40;;;6.67;;
1128;SDS011;553;51.038;7.216;2024-02-04T13:16:39;9.23;;;6.40;;
1128;SDS011;553;51.038;7.216;2024-02-04T13:19:07;6.87;;;6.10;;
1128;SDS011;553;51.038;7.216;2024-02-04T13:21:34;7.27;;;5.70;;
1128;SDS011;553;51.038;7.216;2024-02-04T13:24:00;8.23;;;5.70;;
1128;SDS011;553;51.038;7.216;2024-02-04T13:26:27;8.37;;;6.83;;
1128;SDS011;553;51.038;7.216;2024-02-04T13:28:54;7.90;;;6.50;;
1128;SDS011;553;51.038;7.216;2024-02-04T13:31:21;10.77;;;7.90;;
1128;SDS011;553;51.038;7.216;2024-02-04T13:33:48;8.40;;;7.20;;
1128;SDS011;553;51.038;7.216;2024-02-04T13:36:15;11.57;;;8.57;;
1128;SDS011;553;51.038;7.216;2024-02-04T13:38:42;13.10;;;9.70;;
1128;SDS011;553;51.038;7.216;2024-02-04T13:41:13;10.20;;;8.90;;
1128;SDS011;553;51.038;7.216;2024-02-04T13:43:39;11.83;;;8.77;;
1128;SDS011;553;51.038;7.216;2024-02-04T13:46:06;13.70;;;10.37;;
1128;SDS011;553;51.038;7.216;2024-02-04T13:48:34;12.50;;;9.10;;
1128;SDS011;553;51.038;7.216;2024-02-04T13:51:01;13.07;;;9.67;;
1128;SDS011;553;51.038;7.216;2024-02-04T13:53:27;11.20;;;9.20;;
1128;SDS011;553;51.038;7.216;2024-02-04T13:55:54;14.40;;;10.67;;
1128;SDS011;553;51.038;7.216;2024-02-04T13:58:25;11.77;;;8.70;;
1128;SDS011;553;51.038;7.216;2024-02-04T14:00:53;11.33;;;8.80;;
1128;SDS011;553;51.038;7.216;2024-02-04T14:03:20;12.30;;;9.47;;
1128;SDS011;553;51.038;7.216;2024-02-04T14:05:46;13.93;;;9.67;;
1128;SDS011;553;51.038;7.216;2024-02-04T14:08:13;12.10;;;8.87;;
1128;SDS011;553;51.038;7.216;2024-02-04T14:10:40;15.03;;;10.47;;
1128;SDS011;553;51.038;7.216;2024-02-04T14:13:07;13.90;;;9.73;;
1128;SDS011;553;51.038;7.216;2024-02-04T14:15:36;13.27;;;10.23;;
1128;SDS011;553;51.038;7.216;2024-02-04T14:18:03;12.57;;;10.63;;
1128;SDS011;553;51.038;7.216;2024-02-04T14:20:30;18.80;;;13.63;;
1128;SDS011;553;51.038;7.216;2024-02-04T14:22:57;25.53;;;19.57;;
1128;SDS011;553;51.038;7.216;2024-02-04T14:25:24;20.10;;;15.23;;
1128;SDS011;553;51.038;7.216;2024-02-04T14:27:55;14.30;;;10.83;;
1128;SDS011;553;51.038;7.216;2024-02-04T14:30:22;13.67;;;12.37;;
1128;SDS011;553;51.038;7.216;2024-02-04T14:32:49;12.43;;;9.83;;
1128;SDS011;553;51.038;7.216;2024-02-04T14:35:16;11.70;;;8.03;;
1128;SDS011;553;51.038;7.216;2024-02-04T14:37:43;9.63;;;8.30;;
1128;SDS011;553;51.038;7.216;2024-02-04T14:40:10;9.57;;;6.93;;
1128;SDS011;553;51.038;7.216;2024-02-04T14:42:37;11.40;;;9.57;;
1128;SDS011;553;51.038;7.216;2024-02-04T14:45:08;9.17;;;7.63;;
1128;SDS011;553;51.038;7.216;2024-02-04T14:47:36;34.77;;;30.97;;
1128;SDS011;553;51.038;7.216;2024-02-04T14:50:03;12.57;;;9.30;;
1128;SDS011;553;51.038;7.216;2024-02-04T14:52:30;11.53;;;9.10;;
1128;SDS011;553;51.038;7.216;2024-02-04T14:54:57;10.53;;;7.80;;
1128;SDS011;553;51.038;7.216;2024-02-04T14:57:24;23.80;;;12.83;;
1128;SDS011;553;51.038;7.216;2024-02-04T14:59:50;12.37;;;8.30;;
1128;SDS011;553;51.038;7.216;2024-02-04T15:02:17;8.93;;;6.07;;
1128;SDS011;553;51.038;7.216;2024-02-04T15:04:44;6.17;;;5.53;;
1128;SDS011;553;51.038;7.216;2024-02-04T15:07:11;9.10;;;5.90;;
1128;SDS011;553;51.038;7.216;2024-02-04T15:09:38;4.90;;;4.30;;
1128;SDS011;553;51.038;7.216;2024-02-04T15:12:05;30.43;;;24.87;;
1128;SDS011;553;51.038;7.216;2024-02-04T15:14:32;12.67;;;10.03;;
1128;SDS011;553;51.038;7.216;2024-02-04T15:16:59;4.30;;;3.90;;
1128;SDS011;553;51.038;7.216;2024-02-04T15:19:27;7.67;;;6.63;;
1128;SDS011;553;51.038;7.216;2024-02-04T15:21:54;6.67;;;5.40;;
1128;SDS011;553;51.038;7.216;2024-02-04T15:24:21;6.10;;;5.30;;
1128;SDS011;553;51.038;7.216;2024-02-04T15:26:48;7.53;;;5.00;;
1128;SDS011;553;51.038;7.216;2024-02-04T15:29:15;5.33;;;4.53;;